WetterOnline ( https://www.wetteronline.de )

Wetter aktuell Stegaurach

Aktuelles Wetter: Bamberg (243m)

6-stündlich | Neueste Meldungen
Ortszeit Temperatur Wetter
Sa, 24.08. 14:00 27.5° C fast wolkenlos
Sa, 24.08. 8:00 14.9° C wolkenlos
Sa, 24.08. 2:00 11.1° C wolkenlos
Fr, 23.08. 20:00 22.2° C wolkenlos
Fr, 23.08. 14:00 25.5° C wolkenlos
Fr, 23.08. 8:00 11.3° C wolkenlos
Fr, 23.08. 2:00 9.0° C wolkenlos
Do, 22.08. 20:00 20.3° C wolkenlos
Ortszeit Temperatur Wetter
Sa, 24.08. 14:30 27.8° C leicht bewölkt
Sa, 24.08. 14:20 27.8° C leicht bewölkt
Sa, 24.08. 14:10 28.2° C leicht bewölkt
Sa, 24.08. 14:00 27.5° C fast wolkenlos
Sa, 24.08. 13:50 27.5° C fast wolkenlos
Sa, 24.08. 13:40 27.2° C leicht bewölkt
Sa, 24.08. 13:30 27.2° C leicht bewölkt
Sa, 24.08. 13:00 26.3° C fast wolkenlos
Sa, 24.08. 12:30 26.2° C wolkenlos
Sa, 24.08. 12:00 25.0° C wolkenlos
Sa, 24.08. 11:30 24.8° C wolkenlos
Ortszeit Relative Feuchte Sichtweite
Sa, 24.08. 14:00 50% 35 km
Sa, 24.08. 8:00 76% 30 km
Sa, 24.08. 2:00 97% 10 km
Fr, 23.08. 20:00 63% 55 km
Fr, 23.08. 14:00 40% 45 km
Fr, 23.08. 8:00 84% 25 km
Fr, 23.08. 2:00 95% 19 km
Do, 22.08. 20:00 66% 40 km
Ortszeit Relative Feuchte Sichtweite
Sa, 24.08. 14:30 49% 45 km
Sa, 24.08. 14:20 49% -
Sa, 24.08. 14:10 48% -
Sa, 24.08. 14:00 50% 35 km
Sa, 24.08. 13:50 50% -
Sa, 24.08. 13:40 52% -
Sa, 24.08. 13:30 51% 35 km
Sa, 24.08. 13:00 54% 30 km
Sa, 24.08. 12:30 54% 30 km
Sa, 24.08. 12:00 54% 35 km
Sa, 24.08. 11:30 55% 45 km
Ortszeit Niederschlagsmenge Niederschlagsart
Sa, 24.08. 14:00 0.0 l/m2 in 6 Std. -
Sa, 24.08. 8:00 0.0 l/m2 in 12 Std. -
Sa, 24.08. 2:00 0.0 l/m2 in 6 Std. -
Fr, 23.08. 20:00 0.0 l/m2 in 12 Std. -
Fr, 23.08. 14:00 0.0 l/m2 in 6 Std. -
Fr, 23.08. 8:00 0.0 l/m2 in 12 Std. -
Fr, 23.08. 2:00 0.0 l/m2 in 6 Std. -
Do, 22.08. 20:00 0.0 l/m2 in 12 Std. -
Ortszeit Niederschlagsmenge Niederschlagsart
Sa, 24.08. 14:30 0.0 l/m2 in 1 Std. -
Sa, 24.08. 14:20 keine Meldung -
Sa, 24.08. 14:10 keine Meldung -
Sa, 24.08. 14:00 0.0 l/m2 in 1 Std. -
Sa, 24.08. 13:50 keine Meldung -
Sa, 24.08. 13:40 keine Meldung -
Sa, 24.08. 13:30 0.0 l/m2 in 1 Std. -
Sa, 24.08. 13:00 0.0 l/m2 in 1 Std. -
Sa, 24.08. 12:30 0.0 l/m2 in 1 Std. -
Sa, 24.08. 12:00 0.0 l/m2 in 1 Std. -
Sa, 24.08. 11:30 0.0 l/m2 in 1 Std. -
Ortszeit Stärke Spitze Richtung
km/h Bft. km/h Grad Sektor
Sa, 24.08. 14:00 7 2 25 120° SO
Sa, 24.08. 8:00 6 1 9 320° NW
Sa, 24.08. 2:00 2 1 6 60° NO
Fr, 23.08. 20:00 4 1 25 110° O
Fr, 23.08. 14:00 9 2 26 100° O
Fr, 23.08. 8:00 2 1 4 140° SO
Fr, 23.08. 2:00 4 1 7 110° O
Do, 22.08. 20:00 4 1 25 180° S
Ortszeit Stärke Spitze Richtung
km/h Bft. km/h Grad Sektor
Sa, 24.08. 14:30 11 2 22 50° NO
Sa, 24.08. 14:20 11 2 - 50° NO
Sa, 24.08. 14:10 7 2 - 110° O
Sa, 24.08. 14:00 7 2 22 120° SO
Sa, 24.08. 13:50 7 2 - 120° SO
Sa, 24.08. 13:40 9 2 - 100° O
Sa, 24.08. 13:30 7 2 22 40° NO
Sa, 24.08. 13:00 11 2 22 40° NO
Sa, 24.08. 12:30 9 2 22 70° O
Sa, 24.08. 12:00 11 2 25 80° O
Sa, 24.08. 11:30 14 3 25 80° O
Ortszeit Untergrenze Bedeckung Gattung
total tief tief mittel hoch
Sa, 24.08. 14:00 1320 m 1/8 1/8 - - -
Sa, 24.08. 8:00 - 0/8 0/8 - - -
Sa, 24.08. 2:00 - 0/8 0/8 - - -
Fr, 23.08. 20:00 - 0/8 0/8 - - -
Fr, 23.08. 14:00 - 0/8 0/8 - - -
Fr, 23.08. 8:00 - 0/8 0/8 - - -
Fr, 23.08. 2:00 - 0/8 0/8 - - -
Do, 22.08. 20:00 - 0/8 0/8 - - -
Ortszeit Bedeckungsgrad in Achtel und Wolkenuntergrenze
Sa, 24.08. 14:30 3(1380m)
Sa, 24.08. 14:20 3(1380m)
Sa, 24.08. 14:10 3(1350m)
Sa, 24.08. 14:00 1(1320m)
Sa, 24.08. 13:50 1(1320m)
Sa, 24.08. 13:40 3(1320m)
Sa, 24.08. 13:30 4(1260m)
Sa, 24.08. 13:00 1(1230m)
Sa, 24.08. 12:30 keine Wolken
Sa, 24.08. 12:00 keine Wolken
Sa, 24.08. 11:30 keine Wolken
Ortszeit Luftdruck NN (hPa) Tendenz (hPa in 3 Std.)
Sa, 24.08. 14:00 1019 - 1,2
Sa, 24.08. 8:00 1022 - 0,4
Sa, 24.08. 2:00 1024 - 0,3
Fr, 23.08. 20:00 1022 - 0,9
Fr, 23.08. 14:00 1024 - 1,7
Fr, 23.08. 8:00 1027 + 0,2
Fr, 23.08. 2:00 1027 + 0,3
Do, 22.08. 20:00 1024 - 0,2
Ortszeit Luftdruck NN (hPa) Tendenz (hPa in 3 Std.)
Sa, 24.08. 14:30 1019 - 1,2
Sa, 24.08. 14:20 1019 keine Meldung
Sa, 24.08. 14:10 1019 keine Meldung
Sa, 24.08. 14:00 1019 - 1,2
Sa, 24.08. 13:50 1019 keine Meldung
Sa, 24.08. 13:40 1019 keine Meldung
Sa, 24.08. 13:30 1019 - 1,3
Sa, 24.08. 13:00 1020 - 1,1
Sa, 24.08. 12:30 1020 - 1,0
Sa, 24.08. 12:00 1020 - 0,8
Sa, 24.08. 11:30 1021 - 0,6
Ortszeit Schneehöhe (cm)
Sa, 24.08. 14:00 -
Sa, 24.08. 8:00 -
Sa, 24.08. 2:00 -
Fr, 23.08. 20:00 -
Fr, 23.08. 14:00 -
Fr, 23.08. 8:00 -
Fr, 23.08. 2:00 -
Do, 22.08. 20:00 -
Ortszeit Schneehöhe (cm)
Sa, 24.08. 14:30 -
Sa, 24.08. 14:20 -
Sa, 24.08. 14:10 -
Sa, 24.08. 14:00 -
Sa, 24.08. 13:50 -
Sa, 24.08. 13:40 -
Sa, 24.08. 13:30 -
Sa, 24.08. 13:00 -
Sa, 24.08. 12:30 -
Sa, 24.08. 12:00 -
Sa, 24.08. 11:30 -
Link zu dieser Seite / Seite empfehlen

Das Wetter in ...